Terminal Aerodrome Forecast
Issued by NWS

Home | Current Version | Previous Version | Text Only | Print | Product List | Glossary On
Versions: 1 2 3 4 5 6 7 8 9 10 11 12 13 14 15 16 17 18
000
FTUS41 KCAR 252323
TAFBHB
TAF
KBHB 252323Z 2600/2624 22009KT P6SM OVC100
     FM260500 20009KT 3SM -SHRA OVC015
     FM260600 20009KT 2SM -SHRA BR OVC008
     FM261200 22011KT P6SM BKN015
     FM261600 21011KT P6SM BKN050
      AMD LTD TO CLD VIS AND WIND=

USA.gov is the U.S. government's official web portal to all federal, state and local government web resources and services.